Time;durP1;ratioP1;P1;durP2;ratioP2;P2;SDS_P1;SDS_P2;PMS_P1;PMS_P2;Temp;Humidity;BMP_temperature;BMP_pressure;BME280_temperature;BME280_humidity;BME280_pressure;Samples;Min_cycle;Max_cycle;Signal;HPM_P1;HPM_P2
2022/06/11 00:00:26;;;;;;;;;;;14.40;99.90;;;;;;5115944;28;19907;-78
2022/06/11 00:02:51;;;;;;;;;;;14.40;99.90;;;;;;5116625;28;19908;-80
2022/06/11 00:05:17;;;;;;;;;;;14.30;99.90;;;;;;5116451;28;20379;-80
2022/06/11 00:07:43;;;;;;;;;;;14.30;99.90;;;;;;5115843;28;20275;-78
2022/06/11 00:10:10;;;;;;;;;;;14.30;99.90;;;;;;5116287;28;20395;-77
2022/06/11 00:12:36;;;;;;;;;;;14.20;99.90;;;;;;5115833;28;19907;-76
2022/06/11 00:15:03;;;;;;;;;;;14.20;99.90;;;;;;5115909;28;20333;-76
2022/06/11 00:17:29;;;;;;;;;;;14.20;99.90;;;;;;5115741;28;19908;-76
2022/06/11 00:19:54;;;;;;;;;;;14.20;99.90;;;;;;5115950;28;20426;-77
2022/06/11 00:22:21;;;;;;;;;;;14.20;99.90;;;;;;5116143;28;19907;-78
2022/06/11 00:24:47;;;;;;;;;;;14.10;99.90;;;;;;5115631;28;19915;-77
2022/06/11 00:27:14;;;;;;;;;;;14.10;99.90;;;;;;5115944;28;20250;-78
2022/06/11 00:29:40;;;;;;;;;;;14.20;99.90;;;;;;5115480;28;19912;-77
2022/06/11 00:32:06;;;;;;;;;;;14.10;99.90;;;;;;5115933;28;20040;-79
2022/06/11 00:34:33;;;;;;;;;;;14.10;99.90;;;;;;5115372;28;20052;-77
2022/06/11 00:36:58;;;;;;;;;;;14.10;99.90;;;;;;5115833;28;19914;-78
2022/06/11 00:39:26;;;;;;;;;;;14.00;99.90;;;;;;5115742;28;20010;-80
2022/06/11 00:41:54;;;;;;;;;;;14.00;99.90;;;;;;5115656;28;19914;-78
2022/06/11 00:44:20;;;;;;;;;;;14.00;99.90;;;;;;5115510;28;19935;-78
2022/06/11 00:46:52;;;;;;;;;;;14.00;99.90;;;;;;5115137;28;19962;-77
2022/06/11 00:49:33;;;;;;;;;;;14.00;99.90;;;;;;5115450;28;20014;-78
2022/06/11 00:52:09;;;;;;;;;;;14.00;99.90;;;;;;5115599;28;19907;-79
2022/06/11 00:54:35;;;;;;;;;;;14.00;99.90;;;;;;5115054;28;19959;-77
2022/06/11 00:57:01;;;;;;;;;;;14.00;99.90;;;;;;5115496;28;19961;-78
2022/06/11 00:59:41;;;;;;;;;;;13.90;99.90;;;;;;5115294;28;19908;-78
2022/06/11 01:02:07;;;;;;;;;;;13.90;99.90;;;;;;5115357;28;20321;-78
2022/06/11 01:04:32;;;;;;;;;;;13.90;99.90;;;;;;5114995;28;19958;-77
2022/06/11 01:07:04;;;;;;;;;;;13.90;99.90;;;;;;5115201;28;19915;-77
2022/06/11 01:09:36;;;;;;;;;;;13.90;99.90;;;;;;5114883;28;20009;-76
2022/06/11 01:12:13;;;;;;;;;;;13.80;99.90;;;;;;5115182;28;19914;-77
2022/06/11 01:14:47;;;;;;;;;;;13.80;99.90;;;;;;5114667;28;19960;-77
2022/06/11 01:17:16;;;;;;;;;;;13.80;99.90;;;;;;5115080;28;19915;-77
2022/06/11 01:20:00;;;;;;;;;;;13.80;99.90;;;;;;5114147;28;20292;-78
2022/06/11 01:22:31;;;;;;;;;;;13.80;99.90;;;;;;5114693;28;19912;-78
2022/06/11 01:25:00;;;;;;;;;;;13.80;99.90;;;;;;5114886;28;20002;-78
2022/06/11 01:27:26;;;;;;;;;;;13.70;99.90;;;;;;5114685;28;20011;-78
2022/06/11 01:29:59;;;;;;;;;;;13.80;99.90;;;;;;5114309;28;19950;-78
2022/06/11 01:32:37;;;;;;;;;;;13.80;99.90;;;;;;5114404;28;20269;-78
2022/06/11 01:35:21;;;;;;;;;;;13.80;99.90;;;;;;5114596;28;19907;-78
2022/06/11 01:37:51;;;;;;;;;;;13.80;99.90;;;;;;5114174;28;19914;-78
2022/06/11 01:40:19;;;;;;;;;;;13.80;99.90;;;;;;5114356;28;19908;-78
2022/06/11 01:42:54;;;;;;;;;;;13.90;99.90;;;;;;5114132;28;20018;-77
2022/06/11 01:45:23;;;;;;;;;;;13.90;99.90;;;;;;5114114;28;19911;-77
2022/06/11 01:47:49;;;;;;;;;;;13.90;99.90;;;;;;5113848;28;19972;-77
2022/06/11 01:50:17;;;;;;;;;;;13.90;99.90;;;;;;5114233;28;19916;-78
2022/06/11 01:52:48;;;;;;;;;;;14.00;99.90;;;;;;5095675;28;19907;-78
2022/06/11 01:55:17;;;;;;;;;;;14.00;99.90;;;;;;5113517;28;19947;-78
2022/06/11 01:57:42;;;;;;;;;;;14.00;99.90;;;;;;5113842;28;19912;-77
2022/06/11 02:00:11;;;;;;;;;;;14.00;99.90;;;;;;5114243;28;20057;-78
2022/06/11 02:02:55;;;;;;;;;;;14.00;99.90;;;;;;5113758;28;19957;-78
2022/06/11 02:05:39;;;;;;;;;;;13.90;99.90;;;;;;5114053;28;20003;-78
2022/06/11 02:08:23;;;;;;;;;;;13.80;99.90;;;;;;5114071;28;19923;-79
2022/06/11 02:10:57;;;;;;;;;;;13.80;99.90;;;;;;5113672;28;19947;-79
2022/06/11 02:13:37;;;;;;;;;;;13.70;99.90;;;;;;5113798;28;19907;-78
2022/06/11 02:16:03;;;;;;;;;;;13.70;99.90;;;;;;5113859;28;19908;-78
2022/06/11 02:18:29;;;;;;;;;;;13.60;99.90;;;;;;5113955;28;19965;-78
2022/06/11 02:21:06;;;;;;;;;;;13.50;99.90;;;;;;5113451;28;19974;-78
2022/06/11 02:23:41;;;;;;;;;;;13.50;99.90;;;;;;5113925;28;19907;-78
2022/06/11 02:26:16;;;;;;;;;;;13.50;99.90;;;;;;5113858;28;19908;-78
2022/06/11 02:28:44;;;;;;;;;;;13.50;99.90;;;;;;5095232;28;19918;-78
2022/06/11 02:31:12;;;;;;;;;;;13.40;99.90;;;;;;5113941;28;19981;-78
2022/06/11 02:33:37;;;;;;;;;;;13.40;99.90;;;;;;5113388;28;19908;-78
2022/06/11 02:36:24;;;;;;;;;;;13.30;99.90;;;;;;5113764;28;19915;-78
2022/06/11 02:38:50;;;;;;;;;;;13.30;99.90;;;;;;5113321;28;19908;-78
2022/06/11 02:41:22;;;;;;;;;;;13.30;99.90;;;;;;5113635;28;19951;-77
2022/06/11 02:43:48;;;;;;;;;;;13.20;99.90;;;;;;5113172;28;19915;-77
2022/06/11 02:48:58;;;;;;;;;;;13.20;99.90;;;;;;5113274;28;19967;-77
2022/06/11 02:51:25;;;;;;;;;;;13.20;99.90;;;;;;5113540;28;19955;-77
2022/06/11 02:53:50;;;;;;;;;;;13.20;99.90;;;;;;5113214;28;19908;-78
2022/06/11 02:56:16;;;;;;;;;;;13.20;99.90;;;;;;5113884;28;20370;-77
2022/06/11 02:58:42;;;;;;;;;;;13.20;99.90;;;;;;5113092;28;19915;-77
2022/06/11 03:01:08;;;;;;;;;;;13.20;99.90;;;;;;5113525;28;19915;-78
2022/06/11 03:03:35;;;;;;;;;;;13.10;99.90;;;;;;5113495;28;19947;-78
2022/06/11 03:06:01;;;;;;;;;;;13.10;99.90;;;;;;5115105;28;19908;-78
2022/06/11 03:08:27;;;;;;;;;;;13.10;99.90;;;;;;5117523;28;19957;-78
2022/06/11 03:10:54;;;;;;;;;;;13.10;99.90;;;;;;5117041;28;20008;-78
2022/06/11 03:13:23;;;;;;;;;;;13.10;99.90;;;;;;5117620;28;19916;-77
2022/06/11 03:15:49;;;;;;;;;;;13.10;99.90;;;;;;5116949;28;19911;-77
2022/06/11 03:18:15;;;;;;;;;;;13.00;99.90;;;;;;5117368;28;19912;-77
2022/06/11 03:20:40;;;;;;;;;;;13.10;99.90;;;;;;5116518;28;19920;-77
2022/06/11 03:23:06;;;;;;;;;;;13.10;99.90;;;;;;5117355;28;19907;-78
2022/06/11 03:25:32;;;;;;;;;;;13.00;99.90;;;;;;5117243;28;20358;-79
2022/06/11 03:27:58;;;;;;;;;;;13.00;99.90;;;;;;5116764;28;19964;-78
2022/06/11 03:30:24;;;;;;;;;;;13.00;99.90;;;;;;5117110;28;19916;-78
2022/06/11 03:32:50;;;;;;;;;;;13.00;99.90;;;;;;5116785;28;19914;-78
2022/06/11 03:35:15;;;;;;;;;;;13.00;99.90;;;;;;5117071;28;19908;-78
2022/06/11 03:37:41;;;;;;;;;;;13.00;99.90;;;;;;5116537;28;19914;-78
2022/06/11 03:40:07;;;;;;;;;;;13.00;99.90;;;;;;5117041;28;19947;-79
2022/06/11 03:42:33;;;;;;;;;;;13.00;99.90;;;;;;5116920;28;19907;-78
2022/06/11 03:44:59;;;;;;;;;;;13.10;99.90;;;;;;5116377;28;19912;-79
2022/06/11 03:47:25;;;;;;;;;;;13.10;99.90;;;;;;5116620;28;20010;-78
2022/06/11 03:49:50;;;;;;;;;;;13.20;99.90;;;;;;5116693;28;19962;-79
2022/06/11 03:52:16;;;;;;;;;;;13.20;99.90;;;;;;5116756;28;20369;-78
2022/06/11 03:54:42;;;;;;;;;;;13.20;99.90;;;;;;5116253;28;19996;-77
2022/06/11 03:57:08;;;;;;;;;;;13.20;99.90;;;;;;5116528;28;19915;-78
2022/06/11 03:59:34;;;;;;;;;;;13.30;99.90;;;;;;5116572;28;19914;-78
2022/06/11 04:02:00;;;;;;;;;;;13.30;99.90;;;;;;5116170;28;20017;-78
2022/06/11 04:04:26;;;;;;;;;;;13.30;99.90;;;;;;5116724;28;19908;-78
2022/06/11 04:06:53;;;;;;;;;;;13.30;99.90;;;;;;5117866;28;19919;-77
2022/06/11 04:09:21;;;;;;;;;;;13.30;99.90;;;;;;5115979;28;20269;-77
2022/06/11 04:11:46;;;;;;;;;;;13.30;99.90;;;;;;5115929;28;19908;-77
2022/06/11 04:14:12;;;;;;;;;;;13.30;99.90;;;;;;5116292;28;19908;-77
2022/06/11 04:16:49;;;;;;;;;;;13.30;99.90;;;;;;5116022;28;19915;-78
2022/06/11 04:19:17;;;;;;;;;;;13.30;99.90;;;;;;5115909;28;20284;-79
2022/06/11 04:21:43;;;;;;;;;;;13.40;99.90;;;;;;5115844;28;19920;-77
2022/06/11 04:24:09;;;;;;;;;;;13.40;99.90;;;;;;5116047;28;19961;-78
2022/06/11 04:26:37;;;;;;;;;;;13.50;99.90;;;;;;5115885;28;19915;-79
2022/06/11 04:29:04;;;;;;;;;;;13.50;99.90;;;;;;5115623;28;19916;-79
2022/06/11 04:31:30;;;;;;;;;;;13.50;99.90;;;;;;5116016;28;19914;-78
2022/06/11 04:33:56;;;;;;;;;;;13.50;99.90;;;;;;5115482;28;20007;-78
2022/06/11 04:36:23;;;;;;;;;;;13.50;99.90;;;;;;5116052;28;19998;-78
2022/06/11 04:38:49;;;;;;;;;;;13.50;99.90;;;;;;5115438;28;19951;-77
2022/06/11 04:41:15;;;;;;;;;;;13.50;99.90;;;;;;5115864;28;19970;-78
2022/06/11 04:43:41;;;;;;;;;;;13.50;99.90;;;;;;5115796;28;19912;-77
2022/06/11 04:46:07;;;;;;;;;;;13.40;99.90;;;;;;5115429;28;19908;-77
2022/06/11 04:48:32;;;;;;;;;;;13.40;99.90;;;;;;5115641;28;20246;-78
2022/06/11 04:50:58;;;;;;;;;;;13.30;99.90;;;;;;5122531;28;19908;-79
2022/06/11 04:53:24;;;;;;;;;;;13.30;99.90;;;;;;5117513;28;19918;-77
2022/06/11 04:55:51;;;;;;;;;;;13.30;99.90;;;;;;5115554;28;19907;-78
2022/06/11 04:58:17;;;;;;;;;;;13.30;99.90;;;;;;5115493;28;19915;-78
2022/06/11 05:00:42;;;;;;;;;;;13.40;99.90;;;;;;5115327;28;19912;-78
2022/06/11 05:03:08;;;;;;;;;;;13.40;99.90;;;;;;5115042;28;19907;-79
2022/06/11 05:05:33;;;;;;;;;;;13.40;99.90;;;;;;5115333;28;20357;-78
2022/06/11 05:08:00;;;;;;;;;;;13.40;99.90;;;;;;5114473;28;20010;-78
2022/06/11 05:10:27;;;;;;;;;;;13.40;99.90;;;;;;5115266;28;19912;-79
2022/06/11 05:12:53;;;;;;;;;;;13.30;99.90;;;;;;5114712;28;19912;-78
2022/06/11 05:15:19;;;;;;;;;;;13.30;99.90;;;;;;5115213;28;20415;-78
2022/06/11 05:17:44;;;;;;;;;;;13.30;99.90;;;;;;5114708;28;19918;-76
2022/06/11 05:20:11;;;;;;;;;;;13.40;99.90;;;;;;5114564;28;19974;-78
2022/06/11 05:22:37;;;;;;;;;;;13.40;99.90;;;;;;5114632;28;19907;-78
2022/06/11 05:25:03;;;;;;;;;;;13.40;99.90;;;;;;5114371;28;19915;-78
2022/06/11 05:27:28;;;;;;;;;;;13.50;99.90;;;;;;5114930;28;20369;-78
2022/06/11 05:30:03;;;;;;;;;;;13.50;99.90;;;;;;5114059;28;19927;-79
2022/06/11 05:32:32;;;;;;;;;;;13.40;99.90;;;;;;5114818;28;19953;-78
2022/06/11 05:34:59;;;;;;;;;;;13.40;99.90;;;;;;5118799;28;19908;-77
2022/06/11 05:37:25;;;;;;;;;;;13.40;99.90;;;;;;5134393;28;19908;-77
2022/06/11 05:39:51;;;;;;;;;;;13.50;99.90;;;;;;5115911;28;19915;-78
2022/06/11 05:42:17;;;;;;;;;;;13.70;99.90;;;;;;5115692;28;20272;-77
2022/06/11 05:44:43;;;;;;;;;;;13.90;99.90;;;;;;5114495;28;20349;-78
2022/06/11 05:47:10;;;;;;;;;;;14.00;99.90;;;;;;5114014;28;19919;-78
2022/06/11 05:49:37;;;;;;;;;;;14.20;99.90;;;;;;5114471;28;19972;-78
2022/06/11 05:52:07;;;;;;;;;;;14.30;99.90;;;;;;5113985;28;19914;-78
2022/06/11 05:54:34;;;;;;;;;;;14.40;99.90;;;;;;5114248;28;19915;-78
2022/06/11 05:57:00;;;;;;;;;;;14.60;99.90;;;;;;5113866;28;19915;-79
2022/06/11 05:59:29;;;;;;;;;;;14.70;99.90;;;;;;5114263;28;19915;-78
2022/06/11 06:01:56;;;;;;;;;;;14.80;99.90;;;;;;5113739;28;19912;-77
2022/06/11 06:04:22;;;;;;;;;;;14.80;99.90;;;;;;5114069;28;19907;-77
2022/06/11 06:06:47;;;;;;;;;;;15.00;99.90;;;;;;5113456;28;19911;-77
2022/06/11 06:09:13;;;;;;;;;;;15.10;99.90;;;;;;5114205;28;19912;-78
2022/06/11 06:11:38;;;;;;;;;;;15.20;99.90;;;;;;5114024;28;20404;-78
2022/06/11 06:14:04;;;;;;;;;;;15.10;99.90;;;;;;5113318;28;19937;-78
2022/06/11 06:16:30;;;;;;;;;;;15.20;99.90;;;;;;5113975;28;20303;-77
2022/06/11 06:18:56;;;;;;;;;;;15.30;99.90;;;;;;5113517;28;19914;-77
2022/06/11 06:21:23;;;;;;;;;;;15.30;99.90;;;;;;5114788;28;19920;-78
2022/06/11 06:23:49;;;;;;;;;;;15.40;99.90;;;;;;5136344;28;19920;-76
2022/06/11 06:26:15;;;;;;;;;;;15.40;99.90;;;;;;5123215;28;19950;-77
2022/06/11 06:28:41;;;;;;;;;;;15.40;99.90;;;;;;5115320;28;19911;-78
2022/06/11 06:31:07;;;;;;;;;;;15.40;99.90;;;;;;5112951;28;19908;-78
2022/06/11 06:33:33;;;;;;;;;;;15.50;99.90;;;;;;5113856;28;20316;-78
2022/06/11 06:35:59;;;;;;;;;;;15.50;99.90;;;;;;5113361;28;19908;-78
2022/06/11 06:38:25;;;;;;;;;;;15.60;99.90;;;;;;5114047;28;19912;-78
2022/06/11 06:40:51;;;;;;;;;;;15.60;99.90;;;;;;5112943;28;19912;-77
2022/06/11 06:43:17;;;;;;;;;;;15.60;99.90;;;;;;5113733;28;19914;-78
2022/06/11 06:45:43;;;;;;;;;;;15.70;99.90;;;;;;5113618;28;19946;-78
2022/06/11 06:48:09;;;;;;;;;;;15.70;99.90;;;;;;5113093;28;19952;-77
2022/06/11 06:50:34;;;;;;;;;;;15.60;99.90;;;;;;5113348;28;19923;-78
2022/06/11 06:53:00;;;;;;;;;;;15.50;99.90;;;;;;5113209;28;19964;-78
2022/06/11 06:55:26;;;;;;;;;;;15.40;99.90;;;;;;5113677;28;20380;-78
2022/06/11 06:57:51;;;;;;;;;;;15.40;99.90;;;;;;5112815;28;20245;-78
2022/06/11 07:00:17;;;;;;;;;;;15.30;99.90;;;;;;5113715;28;19915;-78
2022/06/11 07:02:44;;;;;;;;;;;15.20;99.90;;;;;;5113697;28;19908;-78
2022/06/11 07:05:10;;;;;;;;;;;15.30;99.90;;;;;;5112734;28;20353;-79
2022/06/11 07:07:35;;;;;;;;;;;15.40;99.90;;;;;;5113514;28;19923;-78
2022/06/11 07:10:02;;;;;;;;;;;15.60;99.90;;;;;;5124547;28;19912;-77
2022/06/11 07:12:27;;;;;;;;;;;15.80;99.90;;;;;;5132270;28;20356;-78
2022/06/11 07:14:53;;;;;;;;;;;16.10;99.90;;;;;;5116253;28;19960;-78
2022/06/11 07:17:19;;;;;;;;;;;16.20;99.90;;;;;;5114673;28;19907;-78
2022/06/11 07:19:50;;;;;;;;;;;16.40;99.90;;;;;;5113226;28;19973;-79
2022/06/11 07:22:21;;;;;;;;;;;16.60;99.90;;;;;;5112983;28;19912;-78
2022/06/11 07:24:47;;;;;;;;;;;16.70;99.90;;;;;;5113371;28;20018;-78
2022/06/11 07:27:14;;;;;;;;;;;16.70;99.90;;;;;;5112839;28;20023;-79
2022/06/11 07:30:02;;;;;;;;;;;16.80;99.90;;;;;;5113067;28;19912;-78
2022/06/11 07:32:35;;;;;;;;;;;16.80;99.90;;;;;;5113336;28;20375;-78
2022/06/11 07:35:01;;;;;;;;;;;16.80;99.90;;;;;;5112552;28;20250;-78
2022/06/11 07:37:26;;;;;;;;;;;16.70;99.90;;;;;;5113296;28;19919;-79
2022/06/11 07:39:52;;;;;;;;;;;16.60;99.90;;;;;;5113192;28;19934;-79
2022/06/11 07:42:18;;;;;;;;;;;16.70;99.90;;;;;;5113192;28;19954;-79
2022/06/11 07:44:43;;;;;;;;;;;16.90;99.90;;;;;;5113105;28;20003;-80
2022/06/11 07:47:09;;;;;;;;;;;17.00;99.90;;;;;;5112756;28;19971;-79
2022/06/11 07:49:34;;;;;;;;;;;17.10;99.90;;;;;;5113280;28;19923;-79
2022/06/11 07:52:00;;;;;;;;;;;17.20;99.90;;;;;;5112386;28;19951;-77
2022/06/11 07:54:26;;;;;;;;;;;17.30;99.90;;;;;;5116845;28;19915;-78
2022/06/11 07:56:51;;;;;;;;;;;17.40;99.90;;;;;;5116596;28;19934;-77
2022/06/11 07:59:17;;;;;;;;;;;17.50;99.90;;;;;;5115972;28;19915;-78
2022/06/11 08:01:42;;;;;;;;;;;17.60;99.90;;;;;;5116944;28;19915;-79
2022/06/11 08:04:08;;;;;;;;;;;17.60;99.90;;;;;;5134328;28;19947;-78
2022/06/11 08:06:33;;;;;;;;;;;17.60;99.90;;;;;;5118864;28;19919;-79
2022/06/11 08:08:59;;;;;;;;;;;17.70;99.90;;;;;;5115935;28;19987;-78
2022/06/11 08:11:25;;;;;;;;;;;17.70;99.90;;;;;;5117056;28;19911;-78
2022/06/11 08:13:50;;;;;;;;;;;17.60;99.90;;;;;;5116380;28;20389;-78
2022/06/11 08:16:16;;;;;;;;;;;17.60;99.90;;;;;;5115807;28;19907;-78
2022/06/11 08:18:42;;;;;;;;;;;17.70;99.90;;;;;;5116038;28;20352;-78
2022/06/11 08:21:08;;;;;;;;;;;17.70;99.90;;;;;;5115240;28;19972;-78
2022/06/11 08:23:33;;;;;;;;;;;17.80;99.90;;;;;;5115874;28;19908;-79
2022/06/11 08:25:59;;;;;;;;;;;17.90;99.90;;;;;;5097273;28;19907;-78
2022/06/11 08:28:26;;;;;;;;;;;17.90;99.90;;;;;;5115876;28;19915;-77
2022/06/11 08:30:51;;;;;;;;;;;18.00;99.90;;;;;;5116035;28;19916;-78
2022/06/11 08:33:18;;;;;;;;;;;18.10;99.90;;;;;;5115473;28;19908;-78
2022/06/11 08:35:43;;;;;;;;;;;18.10;99.90;;;;;;5115762;28;19993;-78
2022/06/11 08:38:09;;;;;;;;;;;18.10;99.90;;;;;;5115341;28;19954;-79
2022/06/11 08:40:40;;;;;;;;;;;18.00;99.90;;;;;;5115800;28;20249;-78
2022/06/11 08:43:24;;;;;;;;;;;17.90;99.90;;;;;;5115153;28;19908;-78
2022/06/11 08:45:52;;;;;;;;;;;17.90;99.90;;;;;;5115587;28;19948;-78
2022/06/11 08:48:27;;;;;;;;;;;18.00;99.90;;;;;;5115035;28;19923;-78
2022/06/11 08:51:05;;;;;;;;;;;18.10;99.90;;;;;;5115445;28;19911;-78
2022/06/11 08:53:31;;;;;;;;;;;18.20;99.90;;;;;;5115300;28;19967;-78
2022/06/11 08:55:57;;;;;;;;;;;18.30;99.90;;;;;;5115389;28;19915;-79
2022/06/11 08:58:46;;;;;;;;;;;18.40;99.90;;;;;;5115238;28;19908;-78
2022/06/11 09:01:18;;;;;;;;;;;18.30;99.90;;;;;;5075785;28;19908;-78
2022/06/11 09:04:02;;;;;;;;;;;18.30;99.90;;;;;;5114780;28;19907;-78
2022/06/11 09:07:04;;;;;;;;;;;18.30;99.90;;;;;;5114988;28;19942;-78
2022/06/11 09:09:52;;;;;;;;;;;18.20;99.90;;;;;;5032531;28;19914;-80
2022/06/11 09:12:37;;;;;;;;;;;18.10;99.90;;;;;;5064075;28;19912;-79
2022/06/11 09:15:08;;;;;;;;;;;18.20;99.90;;;;;;5114599;28;20241;-79
2022/06/11 09:17:37;;;;;;;;;;;18.10;99.90;;;;;;5114744;28;19939;-79
2022/06/11 09:20:02;;;;;;;;;;;18.10;99.90;;;;;;5114440;28;19943;-78
2022/06/11 09:22:28;;;;;;;;;;;18.30;99.90;;;;;;5114838;28;20340;-78
2022/06/11 09:25:17;;;;;;;;;;;18.40;99.90;;;;;;5114637;28;19915;-78
2022/06/11 09:27:48;;;;;;;;;;;18.50;99.90;;;;;;5076169;28;19981;-79
2022/06/11 09:30:17;;;;;;;;;;;18.60;99.90;;;;;;5114663;28;20360;-78
2022/06/11 09:32:52;;;;;;;;;;;18.60;99.90;;;;;;5114535;28;19914;-78
2022/06/11 09:35:19;;;;;;;;;;;18.70;99.90;;;;;;5113956;28;19911;-78
2022/06/11 09:38:03;;;;;;;;;;;18.80;99.90;;;;;;5114499;28;20006;-80
2022/06/11 09:40:29;;;;;;;;;;;18.70;99.90;;;;;;5114404;28;19961;-79
2022/06/11 09:43:01;;;;;;;;;;;18.60;99.90;;;;;;5114769;28;20345;-80
2022/06/11 09:45:30;;;;;;;;;;;18.50;99.90;;;;;;5114208;28;19947;-80
2022/06/11 09:47:59;;;;;;;;;;;18.40;99.90;;;;;;5114305;28;19961;-80
2022/06/11 09:50:33;;;;;;;;;;;18.10;99.90;;;;;;5113510;28;20400;-77
2022/06/11 09:53:11;;;;;;;;;;;17.80;99.90;;;;;;5114170;28;20422;-80
2022/06/11 09:55:57;;;;;;;;;;;17.70;99.90;;;;;;5114176;28;19915;-77
2022/06/11 09:58:52;;;;;;;;;;;17.50;99.90;;;;;;5112735;28;19908;-77
2022/06/11 10:01:20;;;;;;;;;;;17.30;99.90;;;;;;5095268;28;19908;-77
2022/06/11 10:03:52;;;;;;;;;;;17.20;99.90;;;;;;5114026;28;19908;-78
2022/06/11 10:06:18;;;;;;;;;;;17.10;99.90;;;;;;5113388;28;19908;-77
2022/06/11 10:08:43;;;;;;;;;;;17.00;99.90;;;;;;5113621;28;19919;-77
2022/06/11 10:11:15;;;;;;;;;;;17.00;99.90;;;;;;5113106;28;19960;-77
2022/06/11 10:13:43;;;;;;;;;;;16.90;99.90;;;;;;5113848;28;19907;-79
2022/06/11 10:16:29;;;;;;;;;;;16.90;99.90;;;;;;5112717;28;19908;-77
2022/06/11 10:18:58;;;;;;;;;;;17.00;99.90;;;;;;5112763;28;19919;-77
2022/06/11 10:21:25;;;;;;;;;;;17.10;99.90;;;;;;5128965;28;19968;-77
2022/06/11 10:23:58;;;;;;;;;;;17.20;99.90;;;;;;5121747;28;20266;-78
2022/06/11 10:26:25;;;;;;;;;;;17.30;99.90;;;;;;5114394;28;20318;-78
2022/06/11 10:28:55;;;;;;;;;;;17.30;99.90;;;;;;5114059;28;19911;-79
2022/06/11 10:31:24;;;;;;;;;;;17.40;99.90;;;;;;5113218;28;19908;-79
2022/06/11 10:33:53;;;;;;;;;;;17.30;99.90;;;;;;5113644;28;19908;-78
2022/06/11 10:36:29;;;;;;;;;;;17.10;99.90;;;;;;5113119;28;19912;-77
2022/06/11 10:39:18;;;;;;;;;;;16.90;99.90;;;;;;5113423;28;20395;-77
2022/06/11 10:41:56;;;;;;;;;;;16.80;99.90;;;;;;5113247;28;19915;-77
2022/06/11 10:44:22;;;;;;;;;;;16.50;99.90;;;;;;5112575;28;19907;-78
2022/06/11 10:46:48;;;;;;;;;;;16.10;99.90;;;;;;5113336;28;19919;-77
2022/06/11 10:49:15;;;;;;;;;;;16.00;99.90;;;;;;5112893;28;19919;-77
2022/06/11 10:51:44;;;;;;;;;;;16.00;99.90;;;;;;5113319;28;19908;-77
2022/06/11 10:54:16;;;;;;;;;;;16.10;99.90;;;;;;5113148;28;19914;-77
2022/06/11 10:57:04;;;;;;;;;;;16.20;99.90;;;;;;5113284;28;19930;-76
2022/06/11 10:59:33;;;;;;;;;;;16.60;99.90;;;;;;5102126;28;19908;-78
2022/06/11 11:02:09;;;;;;;;;;;16.90;99.90;;;;;;5113136;28;19983;-79
2022/06/11 11:04:39;;;;;;;;;;;17.30;99.90;;;;;;5113335;28;20365;-78
2022/06/11 11:07:09;;;;;;;;;;;17.50;99.90;;;;;;5113043;28;19915;-75
2022/06/11 11:09:35;;;;;;;;;;;17.70;99.90;;;;;;5113099;28;20377;-77
2022/06/11 11:12:04;;;;;;;;;;;18.00;99.90;;;;;;5113093;28;19914;-77
2022/06/11 11:14:33;;;;;;;;;;;18.30;99.90;;;;;;5112746;28;20335;-78
2022/06/11 11:16:59;;;;;;;;;;;18.40;99.90;;;;;;5113020;28;19961;-77
2022/06/11 11:19:27;;;;;;;;;;;18.30;99.90;;;;;;5120660;28;19919;-77
2022/06/11 11:21:55;;;;;;;;;;;18.20;99.90;;;;;;5114788;28;19961;-77
2022/06/11 11:24:23;;;;;;;;;;;18.10;99.90;;;;;;5112458;28;19908;-78
2022/06/11 11:27:07;;;;;;;;;;;18.00;99.90;;;;;;5114419;28;20280;-77
2022/06/11 11:29:35;;;;;;;;;;;18.00;99.90;;;;;;5116919;28;19912;-79
2022/06/11 11:32:06;;;;;;;;;;;18.10;99.90;;;;;;5116827;28;19935;-77
2022/06/11 11:34:32;;;;;;;;;;;18.20;99.90;;;;;;5116782;28;19908;-78
2022/06/11 11:37:18;;;;;;;;;;;18.40;99.90;;;;;;5116891;28;19961;-78
2022/06/11 11:39:51;;;;;;;;;;;18.40;99.90;;;;;;5116422;28;20261;-79
2022/06/11 11:42:22;;;;;;;;;;;18.60;99.90;;;;;;5116289;28;19960;-80
2022/06/11 11:44:51;;;;;;;;;;;18.80;99.90;;;;;;5116422;28;19912;-81
2022/06/11 11:47:17;;;;;;;;;;;18.90;99.90;;;;;;5115696;28;20056;-80
2022/06/11 11:49:46;;;;;;;;;;;18.90;99.90;;;;;;5098282;28;19976;-81
2022/06/11 11:52:16;;;;;;;;;;;19.00;99.90;;;;;;5115380;28;19915;-79
2022/06/11 11:54:52;;;;;;;;;;;19.10;99.90;;;;;;5116117;28;19915;-80
2022/06/11 11:57:19;;;;;;;;;;;19.30;99.90;;;;;;5115778;28;19961;-80
2022/06/11 12:00:04;;;;;;;;;;;19.40;99.90;;;;;;5115163;28;19935;-80
2022/06/11 12:02:33;;;;;;;;;;;19.50;99.90;;;;;;5115265;28;19916;-80
2022/06/11 12:05:01;;;;;;;;;;;19.50;99.90;;;;;;5115877;28;20011;-80
2022/06/11 12:07:34;;;;;;;;;;;19.60;99.90;;;;;;5115041;28;19912;-81
2022/06/11 12:10:17;;;;;;;;;;;19.60;99.90;;;;;;5116039;28;19919;-80
2022/06/11 12:12:45;;;;;;;;;;;19.60;99.90;;;;;;5114918;28;19950;-80
2022/06/11 12:15:13;;;;;;;;;;;19.50;99.90;;;;;;5115383;28;19912;-77
2022/06/11 12:18:08;;;;;;;;;;;19.50;99.90;;;;;;5115752;28;19908;-79
2022/06/11 12:20:46;;;;;;;;;;;19.50;99.90;;;;;;5097074;28;20011;-80
2022/06/11 12:23:30;;;;;;;;;;;19.60;99.90;;;;;;5115326;28;20348;-76
2022/06/11 12:26:01;;;;;;;;;;;19.70;99.90;;;;;;5115756;28;19911;-80
2022/06/11 12:28:47;;;;;;;;;;;19.70;99.90;;;;;;5114807;28;20356;-80
2022/06/11 12:31:13;;;;;;;;;;;19.80;99.90;;;;;;5114687;28;19911;-77
2022/06/11 12:33:42;;;;;;;;;;;19.80;99.90;;;;;;5115582;28;20356;-79
2022/06/11 12:36:11;;;;;;;;;;;19.90;99.90;;;;;;5115431;28;19908;-80
2022/06/11 12:38:47;;;;;;;;;;;20.00;99.90;;;;;;5114171;28;19998;-80
2022/06/11 12:41:13;;;;;;;;;;;20.10;99.90;;;;;;5114960;28;20280;-77
2022/06/11 12:43:45;;;;;;;;;;;20.10;99.90;;;;;;5096970;28;19915;-81
2022/06/11 12:46:26;;;;;;;;;;;20.10;99.90;;;;;;5115230;28;19908;-80
2022/06/11 12:48:56;;;;;;;;;;;20.00;99.90;;;;;;5115292;28;19916;-79
2022/06/11 12:51:22;;;;;;;;;;;19.80;99.90;;;;;;5115532;28;19915;-80
2022/06/11 12:54:01;;;;;;;;;;;19.80;99.90;;;;;;5115048;28;19907;-80
2022/06/11 12:56:45;;;;;;;;;;;19.80;99.90;;;;;;5114547;28;19915;-80
2022/06/11 12:59:17;;;;;;;;;;;20.00;99.90;;;;;;5115039;28;19915;-80
2022/06/11 13:01:54;;;;;;;;;;;20.10;99.90;;;;;;5115103;28;19908;-81
2022/06/11 13:04:38;;;;;;;;;;;20.20;99.90;;;;;;5114266;28;19907;-79
2022/06/11 13:07:14;;;;;;;;;;;20.30;99.90;;;;;;5114635;28;19919;-80
2022/06/11 13:09:48;;;;;;;;;;;20.30;99.90;;;;;;5114737;28;20005;-81
2022/06/11 13:12:14;;;;;;;;;;;20.30;99.90;;;;;;5114634;28;19915;-76
2022/06/11 13:14:58;;;;;;;;;;;20.40;99.90;;;;;;5114208;28;19908;-81
2022/06/11 13:17:44;;;;;;;;;;;20.50;99.90;;;;;;5119525;28;20376;-81
2022/06/11 13:20:15;;;;;;;;;;;20.50;99.90;;;;;;5113732;28;20413;-81
2022/06/11 13:22:44;;;;;;;;;;;20.50;99.90;;;;;;5114035;28;19914;-80
2022/06/11 13:25:27;;;;;;;;;;;20.40;99.90;;;;;;5113542;28;19915;-80
2022/06/11 13:28:16;;;;;;;;;;;20.30;99.90;;;;;;5113883;28;20064;-80
2022/06/11 13:30:46;;;;;;;;;;;20.30;99.90;;;;;;5094948;28;19911;-80
2022/06/11 13:33:11;;;;;;;;;;;20.40;99.90;;;;;;5113932;28;19953;-80
2022/06/11 13:35:39;;;;;;;;;;;20.30;99.90;;;;;;5113289;28;19912;-81
2022/06/11 13:38:05;;;;;;;;;;;20.20;99.90;;;;;;5113613;28;20045;-78
2022/06/11 13:40:51;;;;;;;;;;;20.00;99.90;;;;;;5113134;28;20006;-79
2022/06/11 13:43:32;;;;;;;;;;;19.90;99.90;;;;;;5093122;28;20385;-77
2022/06/11 13:46:01;;;;;;;;;;;20.00;99.90;;;;;;5127144;28;19942;-79
2022/06/11 13:48:45;;;;;;;;;;;20.00;99.90;;;;;;5132994;28;19911;-81
2022/06/11 13:51:11;;;;;;;;;;;19.90;99.90;;;;;;5113700;28;19911;-80
2022/06/11 13:56:39;;;;;;;;;;;20.10;99.90;;;;;;5112798;28;19915;-81
2022/06/11 13:59:23;;;;;;;;;;;20.20;99.90;;;;;;5113458;28;19911;-81
2022/06/11 14:01:56;;;;;;;;;;;20.20;99.90;;;;;;5113101;28;20002;-81
2022/06/11 14:04:25;;;;;;;;;;;20.40;99.90;;;;;;5112950;28;19908;-80
2022/06/11 14:06:53;;;;;;;;;;;20.30;99.90;;;;;;5113248;28;19912;-81
2022/06/11 14:12:04;;;;;;;;;;;20.00;99.90;;;;;;5112968;28;20418;-81
2022/06/11 14:14:31;;;;;;;;;;;20.00;99.90;;;;;;5112089;28;19955;-80
2022/06/11 14:16:57;;;;;;;;;;;20.20;99.90;;;;;;5112112;28;19977;-80
2022/06/11 14:19:22;;;;;;;;;;;19.90;99.90;;;;;;5112238;28;20361;-82
2022/06/11 14:21:50;;;;;;;;;;;19.70;99.90;;;;;;5112673;28;20378;-80
2022/06/11 14:24:34;;;;;;;;;;;19.60;99.90;;;;;;5112513;28;20280;-78
2022/06/11 14:27:00;;;;;;;;;;;19.50;99.90;;;;;;5094679;28;19912;-79
2022/06/11 14:29:37;;;;;;;;;;;19.50;99.90;;;;;;5112556;28;20341;-80
2022/06/11 14:32:08;;;;;;;;;;;19.70;99.90;;;;;;5112615;28;19915;-82
2022/06/11 14:34:35;;;;;;;;;;;19.70;99.90;;;;;;5112248;28;19931;-81
2022/06/11 14:37:09;;;;;;;;;;;19.80;99.90;;;;;;5112722;28;19919;-80
2022/06/11 14:39:36;;;;;;;;;;;19.80;99.90;;;;;;5112378;28;19934;-79